sensor_id;sensor_type;location;lat;lon;timestamp;P1;durP1;ratioP1;P2;durP2;ratioP2
17151;SDS011;8691;50.828;4.700;2022-09-09T00:00:47;3.37;;;1.40;;
17151;SDS011;8691;50.828;4.700;2022-09-09T00:03:16;4.15;;;1.45;;
17151;SDS011;8691;50.828;4.700;2022-09-09T00:05:44;2.67;;;1.30;;
17151;SDS011;8691;50.828;4.700;2022-09-09T00:08:14;3.30;;;1.60;;
17151;SDS011;8691;50.828;4.700;2022-09-09T00:10:40;3.80;;;1.30;;
17151;SDS011;8691;50.828;4.700;2022-09-09T00:15:59;3.57;;;1.40;;
17151;SDS011;8691;50.828;4.700;2022-09-09T00:21:05;4.38;;;1.65;;
17151;SDS011;8691;50.828;4.700;2022-09-09T00:23:34;2.53;;;1.20;;
17151;SDS011;8691;50.828;4.700;2022-09-09T00:26:02;2.73;;;1.27;;
17151;SDS011;8691;50.828;4.700;2022-09-09T00:28:33;4.85;;;1.55;;
17151;SDS011;8691;50.828;4.700;2022-09-09T00:31:07;5.20;;;1.50;;
17151;SDS011;8691;50.828;4.700;2022-09-09T00:33:29;3.00;;;1.55;;
17151;SDS011;8691;50.828;4.700;2022-09-09T00:35:57;2.90;;;1.30;;
17151;SDS011;8691;50.828;4.700;2022-09-09T00:38:26;4.13;;;1.40;;
17151;SDS011;8691;50.828;4.700;2022-09-09T00:43:27;4.40;;;1.42;;
17151;SDS011;8691;50.828;4.700;2022-09-09T00:46:03;4.10;;;1.35;;
17151;SDS011;8691;50.828;4.700;2022-09-09T00:48:44;3.12;;;1.40;;
17151;SDS011;8691;50.828;4.700;2022-09-09T00:51:17;4.23;;;1.40;;
17151;SDS011;8691;50.828;4.700;2022-09-09T01:02:10;4.57;;;1.20;;
17151;SDS011;8691;50.828;4.700;2022-09-09T01:04:34;3.22;;;1.12;;
17151;SDS011;8691;50.828;4.700;2022-09-09T01:07:23;4.45;;;1.40;;
17151;SDS011;8691;50.828;4.700;2022-09-09T01:12:17;3.57;;;1.40;;
17151;SDS011;8691;50.828;4.700;2022-09-09T01:14:49;3.25;;;1.40;;
17151;SDS011;8691;50.828;4.700;2022-09-09T01:17:20;4.15;;;1.30;;
17151;SDS011;8691;50.828;4.700;2022-09-09T01:22:31;3.17;;;1.30;;
17151;SDS011;8691;50.828;4.700;2022-09-09T01:25:20;3.95;;;1.50;;
17151;SDS011;8691;50.828;4.700;2022-09-09T01:27:46;4.40;;;1.52;;
17151;SDS011;8691;50.828;4.700;2022-09-09T01:30:15;3.33;;;1.20;;
17151;SDS011;8691;50.828;4.700;2022-09-09T01:32:46;3.22;;;1.50;;
17151;SDS011;8691;50.828;4.700;2022-09-09T01:35:28;5.38;;;1.48;;
17151;SDS011;8691;50.828;4.700;2022-09-09T01:37:51;4.17;;;1.30;;
17151;SDS011;8691;50.828;4.700;2022-09-09T01:40:18;4.77;;;1.50;;
17151;SDS011;8691;50.828;4.700;2022-09-09T01:42:45;5.25;;;1.52;;
17151;SDS011;8691;50.828;4.700;2022-09-09T01:45:12;5.60;;;1.57;;
17151;SDS011;8691;50.828;4.700;2022-09-09T01:47:39;7.17;;;1.30;;
17151;SDS011;8691;50.828;4.700;2022-09-09T01:50:07;5.50;;;1.60;;
17151;SDS011;8691;50.828;4.700;2022-09-09T01:52:34;4.60;;;1.67;;
17151;SDS011;8691;50.828;4.700;2022-09-09T01:55:00;4.62;;;1.60;;
17151;SDS011;8691;50.828;4.700;2022-09-09T01:57:30;3.15;;;1.50;;
17151;SDS011;8691;50.828;4.700;2022-09-09T02:00:02;5.37;;;1.80;;
17151;SDS011;8691;50.828;4.700;2022-09-09T02:02:35;4.82;;;1.67;;
17151;SDS011;8691;50.828;4.700;2022-09-09T02:05:07;5.70;;;1.77;;
17151;SDS011;8691;50.828;4.700;2022-09-09T02:07:38;4.60;;;1.70;;
17151;SDS011;8691;50.828;4.700;2022-09-09T02:10:23;5.80;;;1.60;;
17151;SDS011;8691;50.828;4.700;2022-09-09T02:13:02;5.85;;;1.75;;
17151;SDS011;8691;50.828;4.700;2022-09-09T02:15:34;5.13;;;1.83;;
17151;SDS011;8691;50.828;4.700;2022-09-09T02:17:59;5.47;;;1.63;;
17151;SDS011;8691;50.828;4.700;2022-09-09T02:20:26;5.50;;;1.80;;
17151;SDS011;8691;50.828;4.700;2022-09-09T02:22:53;4.45;;;1.60;;
17151;SDS011;8691;50.828;4.700;2022-09-09T02:25:21;4.10;;;1.55;;
17151;SDS011;8691;50.828;4.700;2022-09-09T02:27:47;5.25;;;1.60;;
17151;SDS011;8691;50.828;4.700;2022-09-09T02:30:14;4.93;;;1.62;;
17151;SDS011;8691;50.828;4.700;2022-09-09T02:32:41;4.25;;;1.50;;
17151;SDS011;8691;50.828;4.700;2022-09-09T02:35:11;9.17;;;1.40;;
17151;SDS011;8691;50.828;4.700;2022-09-09T02:37:39;3.30;;;1.20;;
17151;SDS011;8691;50.828;4.700;2022-09-09T02:40:06;5.60;;;1.60;;
17151;SDS011;8691;50.828;4.700;2022-09-09T02:42:34;5.80;;;1.80;;
17151;SDS011;8691;50.828;4.700;2022-09-09T02:44:59;5.10;;;1.70;;
17151;SDS011;8691;50.828;4.700;2022-09-09T02:47:36;5.85;;;1.77;;
17151;SDS011;8691;50.828;4.700;2022-09-09T02:50:05;4.97;;;1.70;;
17151;SDS011;8691;50.828;4.700;2022-09-09T02:52:50;6.43;;;1.98;;
17151;SDS011;8691;50.828;4.700;2022-09-09T02:58:03;5.18;;;1.77;;
17151;SDS011;8691;50.828;4.700;2022-09-09T03:00:29;4.70;;;1.70;;
17151;SDS011;8691;50.828;4.700;2022-09-09T03:02:56;6.35;;;1.85;;
17151;SDS011;8691;50.828;4.700;2022-09-09T03:05:23;5.62;;;1.70;;
17151;SDS011;8691;50.828;4.700;2022-09-09T03:07:51;5.10;;;2.00;;
17151;SDS011;8691;50.828;4.700;2022-09-09T03:10:18;5.67;;;1.73;;
17151;SDS011;8691;50.828;4.700;2022-09-09T03:12:45;4.40;;;1.70;;
17151;SDS011;8691;50.828;4.700;2022-09-09T03:15:11;5.00;;;1.58;;
17151;SDS011;8691;50.828;4.700;2022-09-09T03:17:38;6.10;;;1.80;;
17151;SDS011;8691;50.828;4.700;2022-09-09T03:20:05;5.72;;;1.73;;
17151;SDS011;8691;50.828;4.700;2022-09-09T03:22:32;6.32;;;1.73;;
17151;SDS011;8691;50.828;4.700;2022-09-09T03:24:59;7.28;;;2.47;;
17151;SDS011;8691;50.828;4.700;2022-09-09T03:27:27;6.07;;;1.90;;
17151;SDS011;8691;50.828;4.700;2022-09-09T03:29:54;5.90;;;1.70;;
17151;SDS011;8691;50.828;4.700;2022-09-09T03:32:20;8.12;;;2.12;;
17151;SDS011;8691;50.828;4.700;2022-09-09T03:34:47;5.88;;;1.85;;
17151;SDS011;8691;50.828;4.700;2022-09-09T03:37:14;7.33;;;1.70;;
17151;SDS011;8691;50.828;4.700;2022-09-09T03:39:40;5.97;;;1.63;;
17151;SDS011;8691;50.828;4.700;2022-09-09T03:42:07;7.57;;;1.70;;
17151;SDS011;8691;50.828;4.700;2022-09-09T03:44:34;8.32;;;2.05;;
17151;SDS011;8691;50.828;4.700;2022-09-09T03:47:01;6.10;;;1.67;;
17151;SDS011;8691;50.828;4.700;2022-09-09T03:49:28;6.83;;;1.60;;
17151;SDS011;8691;50.828;4.700;2022-09-09T03:51:55;6.53;;;1.70;;
17151;SDS011;8691;50.828;4.700;2022-09-09T03:54:22;6.90;;;1.80;;
17151;SDS011;8691;50.828;4.700;2022-09-09T03:56:48;6.43;;;1.83;;
17151;SDS011;8691;50.828;4.700;2022-09-09T03:59:15;5.03;;;1.85;;
17151;SDS011;8691;50.828;4.700;2022-09-09T04:01:42;6.35;;;1.80;;
17151;SDS011;8691;50.828;4.700;2022-09-09T04:04:10;6.40;;;1.83;;
17151;SDS011;8691;50.828;4.700;2022-09-09T04:06:36;8.10;;;2.07;;
17151;SDS011;8691;50.828;4.700;2022-09-09T04:09:03;8.27;;;2.07;;
17151;SDS011;8691;50.828;4.700;2022-09-09T04:11:30;5.82;;;1.90;;
17151;SDS011;8691;50.828;4.700;2022-09-09T04:13:57;7.10;;;2.10;;
17151;SDS011;8691;50.828;4.700;2022-09-09T04:16:24;4.70;;;2.00;;
17151;SDS011;8691;50.828;4.700;2022-09-09T04:18:51;6.62;;;2.05;;
17151;SDS011;8691;50.828;4.700;2022-09-09T04:21:18;8.05;;;2.20;;
17151;SDS011;8691;50.828;4.700;2022-09-09T04:23:45;6.00;;;1.73;;
17151;SDS011;8691;50.828;4.700;2022-09-09T04:26:11;7.47;;;2.00;;
17151;SDS011;8691;50.828;4.700;2022-09-09T04:28:38;5.87;;;1.77;;
17151;SDS011;8691;50.828;4.700;2022-09-09T04:31:23;7.07;;;2.00;;
17151;SDS011;8691;50.828;4.700;2022-09-09T04:33:38;5.32;;;1.70;;
17151;SDS011;8691;50.828;4.700;2022-09-09T04:36:05;6.90;;;2.17;;
17151;SDS011;8691;50.828;4.700;2022-09-09T04:38:32;7.78;;;2.08;;
17151;SDS011;8691;50.828;4.700;2022-09-09T04:40:59;6.93;;;2.10;;
17151;SDS011;8691;50.828;4.700;2022-09-09T04:43:26;6.40;;;2.00;;
17151;SDS011;8691;50.828;4.700;2022-09-09T04:45:53;7.43;;;2.20;;
17151;SDS011;8691;50.828;4.700;2022-09-09T04:48:20;7.27;;;2.00;;
17151;SDS011;8691;50.828;4.700;2022-09-09T04:50:53;6.57;;;2.17;;
17151;SDS011;8691;50.828;4.700;2022-09-09T04:53:19;7.63;;;2.37;;
17151;SDS011;8691;50.828;4.700;2022-09-09T04:55:46;7.53;;;2.53;;
17151;SDS011;8691;50.828;4.700;2022-09-09T04:58:13;7.05;;;2.42;;
17151;SDS011;8691;50.828;4.700;2022-09-09T05:00:39;7.87;;;2.37;;
17151;SDS011;8691;50.828;4.700;2022-09-09T05:03:06;7.88;;;2.20;;
17151;SDS011;8691;50.828;4.700;2022-09-09T05:05:33;7.53;;;1.90;;
17151;SDS011;8691;50.828;4.700;2022-09-09T05:08:04;10.07;;;2.20;;
17151;SDS011;8691;50.828;4.700;2022-09-09T05:10:30;10.47;;;2.53;;
17151;SDS011;8691;50.828;4.700;2022-09-09T05:12:57;6.27;;;1.80;;
17151;SDS011;8691;50.828;4.700;2022-09-09T05:15:24;9.30;;;2.55;;
17151;SDS011;8691;50.828;4.700;2022-09-09T05:17:51;8.43;;;2.50;;
17151;SDS011;8691;50.828;4.700;2022-09-09T05:20:18;10.03;;;2.73;;
17151;SDS011;8691;50.828;4.700;2022-09-09T05:22:45;10.05;;;2.42;;
17151;SDS011;8691;50.828;4.700;2022-09-09T05:25:11;10.32;;;2.70;;
17151;SDS011;8691;50.828;4.700;2022-09-09T05:27:38;8.40;;;2.50;;
17151;SDS011;8691;50.828;4.700;2022-09-09T05:30:05;7.73;;;2.40;;
17151;SDS011;8691;50.828;4.700;2022-09-09T05:32:32;8.30;;;2.60;;
17151;SDS011;8691;50.828;4.700;2022-09-09T05:34:59;8.98;;;2.50;;
17151;SDS011;8691;50.828;4.700;2022-09-09T05:37:26;7.47;;;2.13;;
17151;SDS011;8691;50.828;4.700;2022-09-09T05:39:52;9.83;;;2.33;;
17151;SDS011;8691;50.828;4.700;2022-09-09T05:42:19;7.25;;;2.15;;
17151;SDS011;8691;50.828;4.700;2022-09-09T05:44:47;7.38;;;2.20;;
17151;SDS011;8691;50.828;4.700;2022-09-09T05:47:14;8.07;;;2.30;;
17151;SDS011;8691;50.828;4.700;2022-09-09T05:49:40;8.90;;;2.40;;
17151;SDS011;8691;50.828;4.700;2022-09-09T05:52:07;7.43;;;1.87;;
17151;SDS011;8691;50.828;4.700;2022-09-09T05:54:34;8.88;;;2.03;;
17151;SDS011;8691;50.828;4.700;2022-09-09T05:57:01;6.65;;;1.98;;
17151;SDS011;8691;50.828;4.700;2022-09-09T05:59:28;6.85;;;1.77;;
17151;SDS011;8691;50.828;4.700;2022-09-09T06:01:55;7.70;;;2.13;;
17151;SDS011;8691;50.828;4.700;2022-09-09T06:04:22;9.73;;;2.33;;
17151;SDS011;8691;50.828;4.700;2022-09-09T06:06:48;7.30;;;1.85;;
17151;SDS011;8691;50.828;4.700;2022-09-09T06:09:16;8.17;;;1.97;;
17151;SDS011;8691;50.828;4.700;2022-09-09T06:11:43;8.68;;;1.92;;
17151;SDS011;8691;50.828;4.700;2022-09-09T06:14:09;7.43;;;2.10;;
17151;SDS011;8691;50.828;4.700;2022-09-09T06:16:36;7.78;;;2.08;;
17151;SDS011;8691;50.828;4.700;2022-09-09T06:19:06;8.50;;;1.90;;
17151;SDS011;8691;50.828;4.700;2022-09-09T06:21:36;6.17;;;1.60;;
17151;SDS011;8691;50.828;4.700;2022-09-09T06:24:00;6.60;;;2.00;;
17151;SDS011;8691;50.828;4.700;2022-09-09T06:26:27;7.07;;;1.95;;
17151;SDS011;8691;50.828;4.700;2022-09-09T06:28:56;6.77;;;1.80;;
17151;SDS011;8691;50.828;4.700;2022-09-09T06:31:23;4.87;;;1.80;;
17151;SDS011;8691;50.828;4.700;2022-09-09T06:33:50;5.68;;;1.73;;
17151;SDS011;8691;50.828;4.700;2022-09-09T06:36:18;7.97;;;2.20;;
17151;SDS011;8691;50.828;4.700;2022-09-09T06:38:46;7.45;;;2.10;;
17151;SDS011;8691;50.828;4.700;2022-09-09T06:41:14;6.90;;;1.80;;
17151;SDS011;8691;50.828;4.700;2022-09-09T06:43:40;6.12;;;2.00;;
17151;SDS011;8691;50.828;4.700;2022-09-09T06:46:17;5.25;;;1.85;;
17151;SDS011;8691;50.828;4.700;2022-09-09T06:48:43;8.83;;;1.63;;
17151;SDS011;8691;50.828;4.700;2022-09-09T06:51:17;8.50;;;1.80;;
17151;SDS011;8691;50.828;4.700;2022-09-09T06:53:44;5.28;;;1.62;;
17151;SDS011;8691;50.828;4.700;2022-09-09T06:58:37;6.33;;;1.70;;
17151;SDS011;8691;50.828;4.700;2022-09-09T07:01:06;7.53;;;1.90;;
17151;SDS011;8691;50.828;4.700;2022-09-09T07:03:34;6.75;;;1.60;;
17151;SDS011;8691;50.828;4.700;2022-09-09T07:06:01;6.43;;;1.70;;
17151;SDS011;8691;50.828;4.700;2022-09-09T07:08:28;7.90;;;1.88;;
17151;SDS011;8691;50.828;4.700;2022-09-09T07:10:55;8.20;;;1.90;;
17151;SDS011;8691;50.828;4.700;2022-09-09T07:13:24;6.63;;;1.70;;
17151;SDS011;8691;50.828;4.700;2022-09-09T07:15:51;5.38;;;1.62;;
17151;SDS011;8691;50.828;4.700;2022-09-09T07:18:18;8.20;;;2.10;;
17151;SDS011;8691;50.828;4.700;2022-09-09T07:20:54;7.17;;;2.20;;
17151;SDS011;8691;50.828;4.700;2022-09-09T07:23:22;5.55;;;1.70;;
17151;SDS011;8691;50.828;4.700;2022-09-09T07:25:49;6.47;;;1.90;;
17151;SDS011;8691;50.828;4.700;2022-09-09T07:28:16;9.47;;;2.20;;
17151;SDS011;8691;50.828;4.700;2022-09-09T07:30:42;6.68;;;1.67;;
17151;SDS011;8691;50.828;4.700;2022-09-09T07:33:09;6.50;;;1.73;;
17151;SDS011;8691;50.828;4.700;2022-09-09T07:35:36;7.07;;;2.07;;
17151;SDS011;8691;50.828;4.700;2022-09-09T07:38:03;8.25;;;2.15;;
17151;SDS011;8691;50.828;4.700;2022-09-09T07:40:33;7.40;;;2.03;;
17151;SDS011;8691;50.828;4.700;2022-09-09T07:43:00;5.57;;;2.07;;
17151;SDS011;8691;50.828;4.700;2022-09-09T07:45:26;5.90;;;1.80;;
17151;SDS011;8691;50.828;4.700;2022-09-09T07:47:56;6.13;;;1.80;;
17151;SDS011;8691;50.828;4.700;2022-09-09T07:50:23;5.23;;;1.50;;
17151;SDS011;8691;50.828;4.700;2022-09-09T07:52:50;6.22;;;2.00;;
17151;SDS011;8691;50.828;4.700;2022-09-09T07:55:16;6.88;;;2.05;;
17151;SDS011;8691;50.828;4.700;2022-09-09T07:57:43;7.40;;;1.85;;
17151;SDS011;8691;50.828;4.700;2022-09-09T08:00:10;5.23;;;1.60;;
17151;SDS011;8691;50.828;4.700;2022-09-09T08:02:39;7.37;;;1.70;;
17151;SDS011;8691;50.828;4.700;2022-09-09T08:05:06;5.65;;;1.80;;
17151;SDS011;8691;50.828;4.700;2022-09-09T08:07:34;6.03;;;1.80;;
17151;SDS011;8691;50.828;4.700;2022-09-09T08:10:02;6.47;;;1.73;;
17151;SDS011;8691;50.828;4.700;2022-09-09T08:12:29;6.10;;;1.48;;
17151;SDS011;8691;50.828;4.700;2022-09-09T08:14:56;4.90;;;1.50;;
17151;SDS011;8691;50.828;4.700;2022-09-09T08:17:23;5.35;;;1.50;;
17151;SDS011;8691;50.828;4.700;2022-09-09T08:19:50;6.90;;;1.83;;
17151;SDS011;8691;50.828;4.700;2022-09-09T08:22:16;5.83;;;1.80;;
17151;SDS011;8691;50.828;4.700;2022-09-09T08:24:43;5.05;;;1.60;;
17151;SDS011;8691;50.828;4.700;2022-09-09T08:27:10;5.40;;;1.45;;
17151;SDS011;8691;50.828;4.700;2022-09-09T08:29:37;5.33;;;1.50;;
17151;SDS011;8691;50.828;4.700;2022-09-09T08:32:04;5.83;;;1.43;;
17151;SDS011;8691;50.828;4.700;2022-09-09T08:34:31;5.88;;;1.90;;
17151;SDS011;8691;50.828;4.700;2022-09-09T08:36:57;4.55;;;1.67;;
17151;SDS011;8691;50.828;4.700;2022-09-09T08:39:24;5.93;;;1.80;;
17151;SDS011;8691;50.828;4.700;2022-09-09T08:44:50;6.23;;;1.70;;
17151;SDS011;8691;50.828;4.700;2022-09-09T08:47:27;5.28;;;1.60;;
17151;SDS011;8691;50.828;4.700;2022-09-09T08:57:53;6.25;;;1.65;;
17151;SDS011;8691;50.828;4.700;2022-09-09T09:00:20;5.75;;;1.80;;
17151;SDS011;8691;50.828;4.700;2022-09-09T09:11:01;6.50;;;1.80;;
17151;SDS011;8691;50.828;4.700;2022-09-09T09:13:37;4.95;;;1.60;;
17151;SDS011;8691;50.828;4.700;2022-09-09T09:18:43;6.93;;;2.10;;
17151;SDS011;8691;50.828;4.700;2022-09-09T09:21:12;7.13;;;2.17;;
17151;SDS011;8691;50.828;4.700;2022-09-09T09:23:59;7.57;;;2.10;;
17151;SDS011;8691;50.828;4.700;2022-09-09T09:26:26;5.05;;;1.75;;
17151;SDS011;8691;50.828;4.700;2022-09-09T09:28:53;7.03;;;2.20;;
17151;SDS011;8691;50.828;4.700;2022-09-09T09:31:19;6.55;;;1.80;;
17151;SDS011;8691;50.828;4.700;2022-09-09T09:33:49;5.80;;;1.80;;
17151;SDS011;8691;50.828;4.700;2022-09-09T09:36:16;4.70;;;1.70;;
17151;SDS011;8691;50.828;4.700;2022-09-09T09:38:56;8.77;;;2.17;;
17151;SDS011;8691;50.828;4.700;2022-09-09T09:41:35;8.07;;;2.23;;
17151;SDS011;8691;50.828;4.700;2022-09-09T09:44:04;7.40;;;1.85;;
17151;SDS011;8691;50.828;4.700;2022-09-09T09:46:31;7.68;;;2.08;;
17151;SDS011;8691;50.828;4.700;2022-09-09T09:48:58;6.55;;;2.15;;
17151;SDS011;8691;50.828;4.700;2022-09-09T09:51:31;6.97;;;2.00;;
17151;SDS011;8691;50.828;4.700;2022-09-09T09:56:49;5.20;;;2.00;;
17151;SDS011;8691;50.828;4.700;2022-09-09T09:59:23;6.47;;;2.00;;
17151;SDS011;8691;50.828;4.700;2022-09-09T10:01:46;6.43;;;2.15;;
17151;SDS011;8691;50.828;4.700;2022-09-09T10:04:18;7.07;;;2.10;;
17151;SDS011;8691;50.828;4.700;2022-09-09T10:06:43;5.50;;;2.00;;
17151;SDS011;8691;50.828;4.700;2022-09-09T10:09:21;7.37;;;1.73;;
17151;SDS011;8691;50.828;4.700;2022-09-09T10:12:02;4.70;;;1.87;;
17151;SDS011;8691;50.828;4.700;2022-09-09T10:15:15;4.70;;;1.70;;
17151;SDS011;8691;50.828;4.700;2022-09-09T10:22:44;5.67;;;2.00;;
17151;SDS011;8691;50.828;4.700;2022-09-09T10:44:15;6.72;;;1.95;;
17151;SDS011;8691;50.828;4.700;2022-09-09T10:46:54;6.13;;;2.10;;
17151;SDS011;8691;50.828;4.700;2022-09-09T10:54:56;5.18;;;2.10;;
17151;SDS011;8691;50.828;4.700;2022-09-09T11:00:03;8.67;;;2.47;;
17151;SDS011;8691;50.828;4.700;2022-09-09T11:02:27;6.00;;;2.10;;
17151;SDS011;8691;50.828;4.700;2022-09-09T11:07:50;6.20;;;1.85;;
17151;SDS011;8691;50.828;4.700;2022-09-09T11:10:22;6.80;;;2.30;;
17151;SDS011;8691;50.828;4.700;2022-09-09T11:12:47;5.75;;;2.10;;
17151;SDS011;8691;50.828;4.700;2022-09-09T11:15:16;6.45;;;2.10;;
17151;SDS011;8691;50.828;4.700;2022-09-09T11:17:45;6.45;;;1.85;;
17151;SDS011;8691;50.828;4.700;2022-09-09T11:20:17;6.53;;;1.92;;
17151;SDS011;8691;50.828;4.700;2022-09-09T11:22:46;6.22;;;2.15;;
17151;SDS011;8691;50.828;4.700;2022-09-09T11:25:36;5.25;;;1.90;;
17151;SDS011;8691;50.828;4.700;2022-09-09T11:33:24;6.67;;;1.80;;
17151;SDS011;8691;50.828;4.700;2022-09-09T11:36:16;4.82;;;1.73;;
17151;SDS011;8691;50.828;4.700;2022-09-09T11:38:46;5.33;;;1.80;;
17151;SDS011;8691;50.828;4.700;2022-09-09T11:41:15;5.67;;;1.63;;
17151;SDS011;8691;50.828;4.700;2022-09-09T11:43:42;4.60;;;1.63;;
17151;SDS011;8691;50.828;4.700;2022-09-09T11:46:12;4.62;;;1.80;;
17151;SDS011;8691;50.828;4.700;2022-09-09T11:48:39;6.13;;;1.63;;
17151;SDS011;8691;50.828;4.700;2022-09-09T11:51:06;5.25;;;1.90;;
17151;SDS011;8691;50.828;4.700;2022-09-09T11:53:48;5.12;;;1.65;;
17151;SDS011;8691;50.828;4.700;2022-09-09T11:56:28;4.87;;;1.60;;
17151;SDS011;8691;50.828;4.700;2022-09-09T11:58:56;5.50;;;1.50;;
17151;SDS011;8691;50.828;4.700;2022-09-09T12:01:39;5.40;;;1.52;;
17151;SDS011;8691;50.828;4.700;2022-09-09T12:04:12;5.10;;;1.45;;
17151;SDS011;8691;50.828;4.700;2022-09-09T12:06:48;4.37;;;1.40;;
17151;SDS011;8691;50.828;4.700;2022-09-09T12:09:42;4.63;;;1.50;;
17151;SDS011;8691;50.828;4.700;2022-09-09T12:12:16;4.40;;;1.40;;
17151;SDS011;8691;50.828;4.700;2022-09-09T12:17:21;3.83;;;1.48;;
17151;SDS011;8691;50.828;4.700;2022-09-09T12:19:48;3.90;;;1.30;;
17151;SDS011;8691;50.828;4.700;2022-09-09T12:22:18;4.68;;;1.45;;
17151;SDS011;8691;50.828;4.700;2022-09-09T12:27:26;5.43;;;1.70;;
17151;SDS011;8691;50.828;4.700;2022-09-09T12:30:07;4.90;;;1.73;;
17151;SDS011;8691;50.828;4.700;2022-09-09T12:32:30;4.60;;;1.37;;
17151;SDS011;8691;50.828;4.700;2022-09-09T12:35:00;5.30;;;1.50;;
17151;SDS011;8691;50.828;4.700;2022-09-09T12:37:31;3.93;;;1.37;;
17151;SDS011;8691;50.828;4.700;2022-09-09T12:39:56;3.90;;;1.20;;
17151;SDS011;8691;50.828;4.700;2022-09-09T12:42:23;4.07;;;1.47;;
17151;SDS011;8691;50.828;4.700;2022-09-09T12:44:54;3.25;;;1.30;;
17151;SDS011;8691;50.828;4.700;2022-09-09T12:47:17;4.27;;;1.30;;
17151;SDS011;8691;50.828;4.700;2022-09-09T12:49:44;3.27;;;1.30;;
17151;SDS011;8691;50.828;4.700;2022-09-09T12:52:18;3.47;;;1.40;;
17151;SDS011;8691;50.828;4.700;2022-09-09T12:54:42;4.17;;;1.50;;
17151;SDS011;8691;50.828;4.700;2022-09-09T12:57:09;2.90;;;1.23;;
17151;SDS011;8691;50.828;4.700;2022-09-09T12:59:37;4.60;;;1.13;;
17151;SDS011;8691;50.828;4.700;2022-09-09T13:02:21;5.30;;;1.60;;
17151;SDS011;8691;50.828;4.700;2022-09-09T13:04:47;5.00;;;1.50;;
17151;SDS011;8691;50.828;4.700;2022-09-09T13:07:13;4.23;;;1.40;;
17151;SDS011;8691;50.828;4.700;2022-09-09T13:09:40;3.28;;;1.10;;
17151;SDS011;8691;50.828;4.700;2022-09-09T13:12:10;3.67;;;1.30;;
17151;SDS011;8691;50.828;4.700;2022-09-09T13:14:35;3.60;;;1.23;;
17151;SDS011;8691;50.828;4.700;2022-09-09T13:17:02;2.47;;;1.10;;
17151;SDS011;8691;50.828;4.700;2022-09-09T13:19:29;3.17;;;1.10;;
17151;SDS011;8691;50.828;4.700;2022-09-09T13:21:56;3.43;;;1.27;;
17151;SDS011;8691;50.828;4.700;2022-09-09T13:26:59;4.28;;;1.25;;
17151;SDS011;8691;50.828;4.700;2022-09-09T13:29:25;3.40;;;1.10;;
17151;SDS011;8691;50.828;4.700;2022-09-09T13:31:52;1.93;;;1.00;;
17151;SDS011;8691;50.828;4.700;2022-09-09T13:34:31;2.40;;;1.00;;
17151;SDS011;8691;50.828;4.700;2022-09-09T13:37:02;3.40;;;1.10;;
17151;SDS011;8691;50.828;4.700;2022-09-09T13:39:25;3.60;;;0.93;;
17151;SDS011;8691;50.828;4.700;2022-09-09T13:41:52;3.50;;;1.00;;
17151;SDS011;8691;50.828;4.700;2022-09-09T13:44:25;2.20;;;0.95;;
17151;SDS011;8691;50.828;4.700;2022-09-09T13:47:02;3.30;;;1.10;;
17151;SDS011;8691;50.828;4.700;2022-09-09T13:49:42;3.30;;;1.30;;
17151;SDS011;8691;50.828;4.700;2022-09-09T13:52:10;4.68;;;1.27;;
17151;SDS011;8691;50.828;4.700;2022-09-09T13:54:36;2.70;;;0.90;;
17151;SDS011;8691;50.828;4.700;2022-09-09T13:57:03;3.83;;;1.10;;
17151;SDS011;8691;50.828;4.700;2022-09-09T13:59:30;4.20;;;1.00;;
17151;SDS011;8691;50.828;4.700;2022-09-09T14:01:58;3.47;;;1.15;;
17151;SDS011;8691;50.828;4.700;2022-09-09T14:04:24;3.30;;;1.20;;
17151;SDS011;8691;50.828;4.700;2022-09-09T14:06:52;2.28;;;0.90;;
17151;SDS011;8691;50.828;4.700;2022-09-09T14:09:18;2.60;;;1.00;;
17151;SDS011;8691;50.828;4.700;2022-09-09T14:11:45;2.17;;;0.90;;
17151;SDS011;8691;50.828;4.700;2022-09-09T14:14:12;2.40;;;0.90;;
17151;SDS011;8691;50.828;4.700;2022-09-09T14:16:39;3.50;;;1.20;;
17151;SDS011;8691;50.828;4.700;2022-09-09T14:19:07;3.60;;;1.10;;
17151;SDS011;8691;50.828;4.700;2022-09-09T14:21:34;1.67;;;0.90;;
17151;SDS011;8691;50.828;4.700;2022-09-09T14:24:01;2.20;;;0.90;;
17151;SDS011;8691;50.828;4.700;2022-09-09T14:26:28;2.45;;;1.00;;
17151;SDS011;8691;50.828;4.700;2022-09-09T14:28:55;4.20;;;1.07;;
17151;SDS011;8691;50.828;4.700;2022-09-09T14:31:22;2.83;;;1.20;;
17151;SDS011;8691;50.828;4.700;2022-09-09T14:33:48;3.47;;;1.00;;
17151;SDS011;8691;50.828;4.700;2022-09-09T14:36:15;3.40;;;1.10;;
17151;SDS011;8691;50.828;4.700;2022-09-09T14:38:42;2.47;;;1.10;;
17151;SDS011;8691;50.828;4.700;2022-09-09T14:41:13;3.90;;;1.10;;
17151;SDS011;8691;50.828;4.700;2022-09-09T14:43:40;3.07;;;1.10;;
17151;SDS011;8691;50.828;4.700;2022-09-09T14:46:07;2.10;;;1.00;;
17151;SDS011;8691;50.828;4.700;2022-09-09T14:48:34;3.17;;;1.27;;
17151;SDS011;8691;50.828;4.700;2022-09-09T14:51:07;4.33;;;1.00;;
17151;SDS011;8691;50.828;4.700;2022-09-09T14:53:35;2.63;;;1.20;;
17151;SDS011;8691;50.828;4.700;2022-09-09T14:56:09;3.67;;;1.42;;
17151;SDS011;8691;50.828;4.700;2022-09-09T14:58:35;2.75;;;1.00;;
17151;SDS011;8691;50.828;4.700;2022-09-09T15:01:03;2.78;;;1.00;;
17151;SDS011;8691;50.828;4.700;2022-09-09T15:03:29;3.35;;;1.15;;
17151;SDS011;8691;50.828;4.700;2022-09-09T15:05:56;3.10;;;0.93;;
17151;SDS011;8691;50.828;4.700;2022-09-09T15:08:24;3.28;;;1.30;;
17151;SDS011;8691;50.828;4.700;2022-09-09T15:10:50;4.25;;;1.80;;
17151;SDS011;8691;50.828;4.700;2022-09-09T15:13:17;2.85;;;1.12;;
17151;SDS011;8691;50.828;4.700;2022-09-09T15:15:44;2.90;;;1.17;;
17151;SDS011;8691;50.828;4.700;2022-09-09T15:18:11;3.08;;;1.10;;
17151;SDS011;8691;50.828;4.700;2022-09-09T15:20:38;3.70;;;1.50;;
17151;SDS011;8691;50.828;4.700;2022-09-09T15:23:05;4.20;;;1.20;;
17151;SDS011;8691;50.828;4.700;2022-09-09T15:25:32;3.08;;;1.20;;
17151;SDS011;8691;50.828;4.700;2022-09-09T15:27:59;2.10;;;1.00;;
17151;SDS011;8691;50.828;4.700;2022-09-09T15:30:26;4.05;;;1.20;;
17151;SDS011;8691;50.828;4.700;2022-09-09T15:32:53;3.20;;;1.27;;
17151;SDS011;8691;50.828;4.700;2022-09-09T15:35:20;2.90;;;1.17;;
17151;SDS011;8691;50.828;4.700;2022-09-09T15:37:47;3.07;;;1.07;;
17151;SDS011;8691;50.828;4.700;2022-09-09T15:40:14;4.00;;;1.30;;
17151;SDS011;8691;50.828;4.700;2022-09-09T15:42:41;2.97;;;1.05;;
17151;SDS011;8691;50.828;4.700;2022-09-09T15:45:08;4.03;;;1.20;;
17151;SDS011;8691;50.828;4.700;2022-09-09T15:47:35;2.87;;;1.30;;
17151;SDS011;8691;50.828;4.700;2022-09-09T15:50:02;4.83;;;1.27;;
17151;SDS011;8691;50.828;4.700;2022-09-09T15:52:29;2.92;;;1.20;;
17151;SDS011;8691;50.828;4.700;2022-09-09T15:54:55;2.93;;;1.10;;
17151;SDS011;8691;50.828;4.700;2022-09-09T15:57:22;3.35;;;1.00;;
17151;SDS011;8691;50.828;4.700;2022-09-09T15:59:49;4.30;;;1.38;;
17151;SDS011;8691;50.828;4.700;2022-09-09T16:02:16;2.70;;;1.20;;
17151;SDS011;8691;50.828;4.700;2022-09-09T16:04:43;2.87;;;1.10;;
17151;SDS011;8691;50.828;4.700;2022-09-09T16:07:11;4.53;;;1.17;;
17151;SDS011;8691;50.828;4.700;2022-09-09T16:09:38;3.08;;;1.12;;
17151;SDS011;8691;50.828;4.700;2022-09-09T16:12:05;3.47;;;1.30;;
17151;SDS011;8691;50.828;4.700;2022-09-09T16:14:32;3.50;;;1.10;;
17151;SDS011;8691;50.828;4.700;2022-09-09T16:16:59;3.03;;;1.10;;
17151;SDS011;8691;50.828;4.700;2022-09-09T16:19:26;3.60;;;1.27;;
17151;SDS011;8691;50.828;4.700;2022-09-09T16:21:53;2.87;;;1.20;;
17151;SDS011;8691;50.828;4.700;2022-09-09T16:24:20;4.18;;;1.30;;
17151;SDS011;8691;50.828;4.700;2022-09-09T16:26:48;4.32;;;1.17;;
17151;SDS011;8691;50.828;4.700;2022-09-09T16:29:15;2.70;;;1.27;;
17151;SDS011;8691;50.828;4.700;2022-09-09T16:31:41;2.67;;;0.90;;
17151;SDS011;8691;50.828;4.700;2022-09-09T16:34:08;3.62;;;1.20;;
17151;SDS011;8691;50.828;4.700;2022-09-09T16:36:36;4.70;;;1.50;;
17151;SDS011;8691;50.828;4.700;2022-09-09T16:39:03;4.25;;;1.30;;
17151;SDS011;8691;50.828;4.700;2022-09-09T16:41:29;3.47;;;1.40;;
17151;SDS011;8691;50.828;4.700;2022-09-09T16:43:57;3.60;;;1.33;;
17151;SDS011;8691;50.828;4.700;2022-09-09T16:46:26;4.45;;;1.50;;
17151;SDS011;8691;50.828;4.700;2022-09-09T16:48:52;3.30;;;1.20;;